sensor_id;sensor_type;location;lat;lon;timestamp;P1;durP1;ratioP1;P2;durP2;ratioP2
11596;SDS011;5854;48.072;16.286;2022-10-16T00:00:43;42.60;;;30.63;;
11596;SDS011;5854;48.072;16.286;2022-10-16T00:03:10;35.20;;;28.60;;
11596;SDS011;5854;48.072;16.286;2022-10-16T00:05:38;41.58;;;30.67;;
11596;SDS011;5854;48.072;16.286;2022-10-16T00:08:10;42.15;;;30.00;;
11596;SDS011;5854;48.072;16.286;2022-10-16T00:10:38;39.13;;;28.92;;
11596;SDS011;5854;48.072;16.286;2022-10-16T00:13:07;35.53;;;28.50;;
11596;SDS011;5854;48.072;16.286;2022-10-16T00:15:34;39.90;;;29.85;;
11596;SDS011;5854;48.072;16.286;2022-10-16T00:18:04;39.35;;;27.95;;
11596;SDS011;5854;48.072;16.286;2022-10-16T00:20:33;40.70;;;28.40;;
11596;SDS011;5854;48.072;16.286;2022-10-16T00:23:02;39.38;;;27.30;;
11596;SDS011;5854;48.072;16.286;2022-10-16T00:25:32;81.28;;;33.22;;
11596;SDS011;5854;48.072;16.286;2022-10-16T00:27:59;55.58;;;32.10;;
11596;SDS011;5854;48.072;16.286;2022-10-16T00:30:27;61.25;;;32.17;;
11596;SDS011;5854;48.072;16.286;2022-10-16T00:32:54;116.47;;;34.08;;
11596;SDS011;5854;48.072;16.286;2022-10-16T00:35:22;84.45;;;36.50;;
11596;SDS011;5854;48.072;16.286;2022-10-16T00:37:49;87.03;;;36.83;;
11596;SDS011;5854;48.072;16.286;2022-10-16T00:40:16;82.10;;;34.78;;
11596;SDS011;5854;48.072;16.286;2022-10-16T00:42:45;90.00;;;35.63;;
11596;SDS011;5854;48.072;16.286;2022-10-16T00:45:12;171.07;;;39.47;;
11596;SDS011;5854;48.072;16.286;2022-10-16T00:47:40;231.20;;;39.03;;
11596;SDS011;5854;48.072;16.286;2022-10-16T00:50:16;175.45;;;37.53;;
11596;SDS011;5854;48.072;16.286;2022-10-16T00:52:50;133.23;;;36.00;;
11596;SDS011;5854;48.072;16.286;2022-10-16T00:55:19;203.93;;;36.72;;
11596;SDS011;5854;48.072;16.286;2022-10-16T00:57:48;139.18;;;36.08;;
11596;SDS011;5854;48.072;16.286;2022-10-16T01:00:19;517.83;;;49.33;;
11596;SDS011;5854;48.072;16.286;2022-10-16T01:02:52;493.67;;;47.38;;
11596;SDS011;5854;48.072;16.286;2022-10-16T01:05:20;69.33;;;37.47;;
11596;SDS011;5854;48.072;16.286;2022-10-16T01:07:50;128.30;;;39.58;;
11596;SDS011;5854;48.072;16.286;2022-10-16T01:10:27;316.70;;;44.35;;
11596;SDS011;5854;48.072;16.286;2022-10-16T01:13:04;413.15;;;47.35;;
11596;SDS011;5854;48.072;16.286;2022-10-16T01:15:35;332.95;;;42.22;;
11596;SDS011;5854;48.072;16.286;2022-10-16T01:18:14;411.35;;;46.17;;
11596;SDS011;5854;48.072;16.286;2022-10-16T01:20:48;328.95;;;44.47;;
11596;SDS011;5854;48.072;16.286;2022-10-16T01:23:29;600.33;;;53.88;;
11596;SDS011;5854;48.072;16.286;2022-10-16T01:26:13;350.02;;;41.63;;
11596;SDS011;5854;48.072;16.286;2022-10-16T01:28:53;275.20;;;40.95;;
11596;SDS011;5854;48.072;16.286;2022-10-16T01:31:25;126.47;;;37.58;;
11596;SDS011;5854;48.072;16.286;2022-10-16T01:33:59;136.52;;;36.35;;
11596;SDS011;5854;48.072;16.286;2022-10-16T01:36:33;73.05;;;34.20;;
11596;SDS011;5854;48.072;16.286;2022-10-16T01:39:05;47.03;;;32.53;;
11596;SDS011;5854;48.072;16.286;2022-10-16T01:41:38;110.00;;;35.75;;
11596;SDS011;5854;48.072;16.286;2022-10-16T01:44:14;58.25;;;31.88;;
11596;SDS011;5854;48.072;16.286;2022-10-16T01:46:46;44.67;;;31.45;;
11596;SDS011;5854;48.072;16.286;2022-10-16T01:49:16;44.90;;;32.20;;
11596;SDS011;5854;48.072;16.286;2022-10-16T01:51:45;43.80;;;30.45;;
11596;SDS011;5854;48.072;16.286;2022-10-16T01:54:17;46.40;;;32.00;;
11596;SDS011;5854;48.072;16.286;2022-10-16T01:56:46;34.28;;;26.67;;
11596;SDS011;5854;48.072;16.286;2022-10-16T01:59:17;39.88;;;28.88;;
11596;SDS011;5854;48.072;16.286;2022-10-16T02:01:48;40.55;;;28.33;;
11596;SDS011;5854;48.072;16.286;2022-10-16T02:04:18;49.55;;;29.55;;
11596;SDS011;5854;48.072;16.286;2022-10-16T02:06:51;38.80;;;27.33;;
11596;SDS011;5854;48.072;16.286;2022-10-16T02:09:19;42.28;;;26.30;;
11596;SDS011;5854;48.072;16.286;2022-10-16T02:11:46;69.13;;;28.70;;
11596;SDS011;5854;48.072;16.286;2022-10-16T02:14:14;37.13;;;27.05;;
11596;SDS011;5854;48.072;16.286;2022-10-16T02:16:44;135.68;;;31.83;;
11596;SDS011;5854;48.072;16.286;2022-10-16T02:19:13;37.78;;;28.35;;
11596;SDS011;5854;48.072;16.286;2022-10-16T02:21:43;133.63;;;34.13;;
11596;SDS011;5854;48.072;16.286;2022-10-16T02:24:17;54.33;;;28.13;;
11596;SDS011;5854;48.072;16.286;2022-10-16T02:26:56;41.63;;;28.45;;
11596;SDS011;5854;48.072;16.286;2022-10-16T02:29:34;35.85;;;27.50;;
11596;SDS011;5854;48.072;16.286;2022-10-16T02:32:09;33.83;;;26.55;;
11596;SDS011;5854;48.072;16.286;2022-10-16T02:34:38;33.95;;;28.33;;
11596;SDS011;5854;48.072;16.286;2022-10-16T02:37:06;38.22;;;28.23;;
11596;SDS011;5854;48.072;16.286;2022-10-16T02:39:35;97.43;;;32.28;;
11596;SDS011;5854;48.072;16.286;2022-10-16T02:42:06;101.30;;;31.48;;
11596;SDS011;5854;48.072;16.286;2022-10-16T02:44:38;89.40;;;29.50;;
11596;SDS011;5854;48.072;16.286;2022-10-16T02:47:05;143.40;;;31.05;;
11596;SDS011;5854;48.072;16.286;2022-10-16T02:49:32;91.05;;;30.05;;
11596;SDS011;5854;48.072;16.286;2022-10-16T02:51:59;114.03;;;29.75;;
11596;SDS011;5854;48.072;16.286;2022-10-16T02:54:26;234.15;;;32.83;;
11596;SDS011;5854;48.072;16.286;2022-10-16T02:56:53;123.03;;;30.70;;
11596;SDS011;5854;48.072;16.286;2022-10-16T02:59:20;219.93;;;31.58;;
11596;SDS011;5854;48.072;16.286;2022-10-16T03:01:49;67.97;;;30.58;;
11596;SDS011;5854;48.072;16.286;2022-10-16T03:04:16;83.53;;;30.73;;
11596;SDS011;5854;48.072;16.286;2022-10-16T03:06:43;587.47;;;40.03;;
11596;SDS011;5854;48.072;16.286;2022-10-16T03:09:10;228.48;;;33.13;;
11596;SDS011;5854;48.072;16.286;2022-10-16T03:11:37;133.18;;;32.30;;
11596;SDS011;5854;48.072;16.286;2022-10-16T03:14:04;212.50;;;31.85;;
11596;SDS011;5854;48.072;16.286;2022-10-16T03:16:32;265.52;;;35.20;;
11596;SDS011;5854;48.072;16.286;2022-10-16T03:19:01;259.77;;;36.72;;
11596;SDS011;5854;48.072;16.286;2022-10-16T03:21:28;242.88;;;35.88;;
11596;SDS011;5854;48.072;16.286;2022-10-16T03:23:55;349.85;;;37.47;;
11596;SDS011;5854;48.072;16.286;2022-10-16T03:26:22;317.50;;;36.60;;
11596;SDS011;5854;48.072;16.286;2022-10-16T03:28:49;81.18;;;34.42;;
11596;SDS011;5854;48.072;16.286;2022-10-16T03:31:16;592.03;;;49.40;;
11596;SDS011;5854;48.072;16.286;2022-10-16T03:33:43;170.73;;;33.55;;
11596;SDS011;5854;48.072;16.286;2022-10-16T03:36:11;75.97;;;30.70;;
11596;SDS011;5854;48.072;16.286;2022-10-16T03:38:39;249.63;;;32.70;;
11596;SDS011;5854;48.072;16.286;2022-10-16T03:41:06;157.82;;;31.67;;
11596;SDS011;5854;48.072;16.286;2022-10-16T03:43:33;114.75;;;33.22;;
11596;SDS011;5854;48.072;16.286;2022-10-16T03:46:00;101.35;;;31.05;;
11596;SDS011;5854;48.072;16.286;2022-10-16T03:48:28;57.35;;;31.35;;
11596;SDS011;5854;48.072;16.286;2022-10-16T03:50:57;305.60;;;33.83;;
11596;SDS011;5854;48.072;16.286;2022-10-16T03:53:25;245.35;;;30.10;;
11596;SDS011;5854;48.072;16.286;2022-10-16T03:55:52;126.90;;;31.70;;
11596;SDS011;5854;48.072;16.286;2022-10-16T03:58:19;81.68;;;28.38;;
11596;SDS011;5854;48.072;16.286;2022-10-16T04:00:46;139.55;;;27.17;;
11596;SDS011;5854;48.072;16.286;2022-10-16T04:03:13;64.45;;;23.58;;
11596;SDS011;5854;48.072;16.286;2022-10-16T04:05:40;191.18;;;29.35;;
11596;SDS011;5854;48.072;16.286;2022-10-16T04:08:07;203.38;;;28.90;;
11596;SDS011;5854;48.072;16.286;2022-10-16T04:10:36;118.40;;;25.48;;
11596;SDS011;5854;48.072;16.286;2022-10-16T04:13:03;43.00;;;22.55;;
11596;SDS011;5854;48.072;16.286;2022-10-16T04:15:30;38.35;;;23.17;;
11596;SDS011;5854;48.072;16.286;2022-10-16T04:17:57;39.90;;;22.23;;
11596;SDS011;5854;48.072;16.286;2022-10-16T04:20:24;39.53;;;21.90;;
11596;SDS011;5854;48.072;16.286;2022-10-16T04:22:51;21.63;;;19.23;;
11596;SDS011;5854;48.072;16.286;2022-10-16T04:25:18;23.55;;;20.92;;
11596;SDS011;5854;48.072;16.286;2022-10-16T04:27:47;22.75;;;20.40;;
11596;SDS011;5854;48.072;16.286;2022-10-16T04:30:14;22.52;;;20.23;;
11596;SDS011;5854;48.072;16.286;2022-10-16T04:32:41;22.73;;;20.02;;
11596;SDS011;5854;48.072;16.286;2022-10-16T04:35:08;27.65;;;19.20;;
11596;SDS011;5854;48.072;16.286;2022-10-16T04:37:35;27.20;;;19.63;;
11596;SDS011;5854;48.072;16.286;2022-10-16T04:40:03;22.55;;;19.52;;
11596;SDS011;5854;48.072;16.286;2022-10-16T04:42:31;19.80;;;17.90;;
11596;SDS011;5854;48.072;16.286;2022-10-16T04:44:59;20.05;;;18.05;;
11596;SDS011;5854;48.072;16.286;2022-10-16T04:47:26;17.65;;;16.00;;
11596;SDS011;5854;48.072;16.286;2022-10-16T04:49:53;17.20;;;15.65;;
11596;SDS011;5854;48.072;16.286;2022-10-16T04:52:21;17.08;;;15.57;;
11596;SDS011;5854;48.072;16.286;2022-10-16T04:54:49;16.70;;;15.30;;
11596;SDS011;5854;48.072;16.286;2022-10-16T04:57:17;16.27;;;14.88;;
11596;SDS011;5854;48.072;16.286;2022-10-16T04:59:44;16.80;;;15.40;;
11596;SDS011;5854;48.072;16.286;2022-10-16T05:02:12;21.08;;;15.55;;
11596;SDS011;5854;48.072;16.286;2022-10-16T05:04:39;15.68;;;14.25;;
11596;SDS011;5854;48.072;16.286;2022-10-16T05:07:07;16.38;;;14.98;;
11596;SDS011;5854;48.072;16.286;2022-10-16T05:09:34;15.55;;;14.25;;
11596;SDS011;5854;48.072;16.286;2022-10-16T05:12:01;16.08;;;14.68;;
11596;SDS011;5854;48.072;16.286;2022-10-16T05:14:29;15.70;;;14.25;;
11596;SDS011;5854;48.072;16.286;2022-10-16T05:16:56;14.85;;;13.65;;
11596;SDS011;5854;48.072;16.286;2022-10-16T05:19:25;14.90;;;13.77;;
11596;SDS011;5854;48.072;16.286;2022-10-16T05:21:52;15.18;;;13.00;;
11596;SDS011;5854;48.072;16.286;2022-10-16T05:24:19;19.40;;;13.38;;
11596;SDS011;5854;48.072;16.286;2022-10-16T05:26:46;16.85;;;13.75;;
11596;SDS011;5854;48.072;16.286;2022-10-16T05:29:13;16.20;;;14.32;;
11596;SDS011;5854;48.072;16.286;2022-10-16T05:31:40;15.80;;;14.15;;
11596;SDS011;5854;48.072;16.286;2022-10-16T05:34:07;74.85;;;17.13;;
11596;SDS011;5854;48.072;16.286;2022-10-16T05:36:36;56.15;;;16.05;;
11596;SDS011;5854;48.072;16.286;2022-10-16T05:39:03;220.38;;;19.85;;
11596;SDS011;5854;48.072;16.286;2022-10-16T05:41:31;288.17;;;20.65;;
11596;SDS011;5854;48.072;16.286;2022-10-16T05:43:59;281.67;;;23.23;;
11596;SDS011;5854;48.072;16.286;2022-10-16T05:46:27;79.82;;;20.02;;
11596;SDS011;5854;48.072;16.286;2022-10-16T05:48:54;75.25;;;21.30;;
11596;SDS011;5854;48.072;16.286;2022-10-16T05:51:21;159.48;;;21.33;;
11596;SDS011;5854;48.072;16.286;2022-10-16T05:53:50;177.70;;;21.27;;
11596;SDS011;5854;48.072;16.286;2022-10-16T05:56:18;265.40;;;22.75;;
11596;SDS011;5854;48.072;16.286;2022-10-16T05:58:45;315.30;;;26.20;;
11596;SDS011;5854;48.072;16.286;2022-10-16T06:01:13;184.40;;;21.75;;
11596;SDS011;5854;48.072;16.286;2022-10-16T06:03:42;150.32;;;21.00;;
11596;SDS011;5854;48.072;16.286;2022-10-16T06:06:10;99.57;;;23.00;;
11596;SDS011;5854;48.072;16.286;2022-10-16T06:08:39;37.67;;;20.23;;
11596;SDS011;5854;48.072;16.286;2022-10-16T06:11:10;167.35;;;23.05;;
11596;SDS011;5854;48.072;16.286;2022-10-16T06:13:38;20.65;;;18.45;;
11596;SDS011;5854;48.072;16.286;2022-10-16T06:16:07;24.85;;;21.45;;
11596;SDS011;5854;48.072;16.286;2022-10-16T06:18:34;67.60;;;23.52;;
11596;SDS011;5854;48.072;16.286;2022-10-16T06:21:06;46.95;;;25.00;;
11596;SDS011;5854;48.072;16.286;2022-10-16T06:23:37;239.13;;;28.10;;
11596;SDS011;5854;48.072;16.286;2022-10-16T06:26:04;46.75;;;25.35;;
11596;SDS011;5854;48.072;16.286;2022-10-16T06:28:35;170.70;;;27.17;;
11596;SDS011;5854;48.072;16.286;2022-10-16T06:31:06;235.32;;;32.47;;
11596;SDS011;5854;48.072;16.286;2022-10-16T06:33:35;136.23;;;26.98;;
11596;SDS011;5854;48.072;16.286;2022-10-16T06:36:04;233.48;;;29.10;;
11596;SDS011;5854;48.072;16.286;2022-10-16T06:38:34;152.63;;;26.65;;
11596;SDS011;5854;48.072;16.286;2022-10-16T06:41:02;111.03;;;26.35;;
11596;SDS011;5854;48.072;16.286;2022-10-16T06:43:35;96.10;;;27.70;;
11596;SDS011;5854;48.072;16.286;2022-10-16T06:46:03;56.42;;;23.92;;
11596;SDS011;5854;48.072;16.286;2022-10-16T06:48:33;174.10;;;25.38;;
11596;SDS011;5854;48.072;16.286;2022-10-16T06:51:03;184.85;;;24.70;;
11596;SDS011;5854;48.072;16.286;2022-10-16T06:53:32;45.42;;;25.92;;
11596;SDS011;5854;48.072;16.286;2022-10-16T06:56:06;112.22;;;24.85;;
11596;SDS011;5854;48.072;16.286;2022-10-16T06:58:36;152.52;;;26.70;;
11596;SDS011;5854;48.072;16.286;2022-10-16T07:01:05;269.55;;;25.75;;
11596;SDS011;5854;48.072;16.286;2022-10-16T07:03:35;299.15;;;28.33;;
11596;SDS011;5854;48.072;16.286;2022-10-16T07:06:03;361.45;;;27.05;;
11596;SDS011;5854;48.072;16.286;2022-10-16T07:08:36;79.18;;;22.02;;
11596;SDS011;5854;48.072;16.286;2022-10-16T07:11:06;249.32;;;23.35;;
11596;SDS011;5854;48.072;16.286;2022-10-16T07:13:38;50.67;;;24.42;;
11596;SDS011;5854;48.072;16.286;2022-10-16T07:16:07;154.10;;;24.05;;
11596;SDS011;5854;48.072;16.286;2022-10-16T07:18:36;211.38;;;24.02;;
11596;SDS011;5854;48.072;16.286;2022-10-16T07:21:06;70.75;;;25.38;;
11596;SDS011;5854;48.072;16.286;2022-10-16T07:23:38;135.63;;;26.08;;
11596;SDS011;5854;48.072;16.286;2022-10-16T07:26:20;57.05;;;26.42;;
11596;SDS011;5854;48.072;16.286;2022-10-16T07:31:49;44.58;;;24.38;;
11596;SDS011;5854;48.072;16.286;2022-10-16T07:34:17;79.63;;;26.67;;
11596;SDS011;5854;48.072;16.286;2022-10-16T07:37:06;90.43;;;23.48;;
11596;SDS011;5854;48.072;16.286;2022-10-16T07:39:37;115.57;;;22.55;;
11596;SDS011;5854;48.072;16.286;2022-10-16T07:42:05;103.15;;;24.67;;
11596;SDS011;5854;48.072;16.286;2022-10-16T07:44:33;65.43;;;26.05;;
11596;SDS011;5854;48.072;16.286;2022-10-16T07:47:01;80.22;;;22.45;;
11596;SDS011;5854;48.072;16.286;2022-10-16T07:49:28;101.32;;;21.85;;
11596;SDS011;5854;48.072;16.286;2022-10-16T07:54:31;30.65;;;17.02;;
11596;SDS011;5854;48.072;16.286;2022-10-16T07:56:58;121.60;;;28.25;;
11596;SDS011;5854;48.072;16.286;2022-10-16T07:59:26;144.00;;;27.80;;
11596;SDS011;5854;48.072;16.286;2022-10-16T08:01:53;129.07;;;22.70;;
11596;SDS011;5854;48.072;16.286;2022-10-16T08:04:21;84.47;;;20.25;;
11596;SDS011;5854;48.072;16.286;2022-10-16T08:06:49;39.63;;;18.40;;
11596;SDS011;5854;48.072;16.286;2022-10-16T08:09:19;41.15;;;14.77;;
11596;SDS011;5854;48.072;16.286;2022-10-16T08:11:46;66.38;;;20.52;;
11596;SDS011;5854;48.072;16.286;2022-10-16T08:14:13;94.80;;;19.40;;
11596;SDS011;5854;48.072;16.286;2022-10-16T08:16:41;31.08;;;19.20;;
11596;SDS011;5854;48.072;16.286;2022-10-16T08:19:08;86.18;;;21.15;;
11596;SDS011;5854;48.072;16.286;2022-10-16T08:21:36;57.78;;;22.90;;
11596;SDS011;5854;48.072;16.286;2022-10-16T08:24:04;51.47;;;24.20;;
11596;SDS011;5854;48.072;16.286;2022-10-16T08:26:31;76.07;;;24.27;;
11596;SDS011;5854;48.072;16.286;2022-10-16T08:28:58;49.40;;;22.00;;
11596;SDS011;5854;48.072;16.286;2022-10-16T08:31:25;63.88;;;23.67;;
11596;SDS011;5854;48.072;16.286;2022-10-16T08:33:52;49.13;;;20.70;;
11596;SDS011;5854;48.072;16.286;2022-10-16T08:36:20;40.53;;;23.25;;
11596;SDS011;5854;48.072;16.286;2022-10-16T08:38:50;52.05;;;25.50;;
11596;SDS011;5854;48.072;16.286;2022-10-16T08:41:32;40.30;;;26.07;;
11596;SDS011;5854;48.072;16.286;2022-10-16T08:44:37;40.17;;;26.40;;
11596;SDS011;5854;48.072;16.286;2022-10-16T08:47:31;45.40;;;27.58;;
11596;SDS011;5854;48.072;16.286;2022-10-16T08:50:12;50.75;;;24.40;;
11596;SDS011;5854;48.072;16.286;2022-10-16T08:55:17;31.75;;;24.50;;
11596;SDS011;5854;48.072;16.286;2022-10-16T08:57:59;57.05;;;28.08;;
11596;SDS011;5854;48.072;16.286;2022-10-16T09:00:27;55.80;;;29.15;;
11596;SDS011;5854;48.072;16.286;2022-10-16T09:02:57;50.60;;;32.42;;
11596;SDS011;5854;48.072;16.286;2022-10-16T09:05:49;64.45;;;32.95;;
11596;SDS011;5854;48.072;16.286;2022-10-16T09:08:29;61.95;;;34.13;;
11596;SDS011;5854;48.072;16.286;2022-10-16T09:11:09;55.30;;;36.38;;
11596;SDS011;5854;48.072;16.286;2022-10-16T09:13:46;180.40;;;31.48;;
11596;SDS011;5854;48.072;16.286;2022-10-16T09:16:19;37.78;;;26.95;;
11596;SDS011;5854;48.072;16.286;2022-10-16T09:18:54;37.60;;;27.50;;
11596;SDS011;5854;48.072;16.286;2022-10-16T09:21:28;45.20;;;30.02;;
11596;SDS011;5854;48.072;16.286;2022-10-16T09:23:58;41.67;;;33.30;;
11596;SDS011;5854;48.072;16.286;2022-10-16T09:26:37;52.60;;;37.33;;
11596;SDS011;5854;48.072;16.286;2022-10-16T09:29:04;54.42;;;39.17;;
11596;SDS011;5854;48.072;16.286;2022-10-16T09:31:31;53.88;;;35.70;;
11596;SDS011;5854;48.072;16.286;2022-10-16T09:34:03;49.60;;;38.28;;
11596;SDS011;5854;48.072;16.286;2022-10-16T09:39:14;57.47;;;36.27;;
11596;SDS011;5854;48.072;16.286;2022-10-16T09:41:43;49.13;;;39.53;;
11596;SDS011;5854;48.072;16.286;2022-10-16T09:44:17;47.20;;;37.33;;
11596;SDS011;5854;48.072;16.286;2022-10-16T09:46:49;55.25;;;41.80;;
11596;SDS011;5854;48.072;16.286;2022-10-16T09:49:27;65.80;;;44.20;;
11596;SDS011;5854;48.072;16.286;2022-10-16T09:52:02;59.13;;;41.90;;
11596;SDS011;5854;48.072;16.286;2022-10-16T09:54:31;53.65;;;37.90;;
11596;SDS011;5854;48.072;16.286;2022-10-16T09:57:05;52.35;;;39.88;;
11596;SDS011;5854;48.072;16.286;2022-10-16T09:59:33;53.60;;;40.90;;
11596;SDS011;5854;48.072;16.286;2022-10-16T10:02:11;52.10;;;39.13;;
11596;SDS011;5854;48.072;16.286;2022-10-16T10:04:44;53.87;;;41.80;;
11596;SDS011;5854;48.072;16.286;2022-10-16T10:07:17;45.60;;;33.58;;
11596;SDS011;5854;48.072;16.286;2022-10-16T10:09:47;50.20;;;38.58;;
11596;SDS011;5854;48.072;16.286;2022-10-16T10:12:18;57.33;;;41.67;;
11596;SDS011;5854;48.072;16.286;2022-10-16T10:14:48;68.38;;;44.03;;
11596;SDS011;5854;48.072;16.286;2022-10-16T10:17:18;63.78;;;43.17;;
11596;SDS011;5854;48.072;16.286;2022-10-16T10:19:48;65.00;;;45.65;;
11596;SDS011;5854;48.072;16.286;2022-10-16T10:22:20;73.85;;;47.90;;
11596;SDS011;5854;48.072;16.286;2022-10-16T10:24:55;60.70;;;42.40;;
11596;SDS011;5854;48.072;16.286;2022-10-16T10:27:26;58.83;;;41.83;;
11596;SDS011;5854;48.072;16.286;2022-10-16T10:30:05;64.38;;;46.25;;
11596;SDS011;5854;48.072;16.286;2022-10-16T10:32:41;72.25;;;48.70;;
11596;SDS011;5854;48.072;16.286;2022-10-16T10:35:22;67.22;;;46.17;;
11596;SDS011;5854;48.072;16.286;2022-10-16T10:38:00;67.95;;;47.88;;
11596;SDS011;5854;48.072;16.286;2022-10-16T10:40:40;74.45;;;46.85;;
11596;SDS011;5854;48.072;16.286;2022-10-16T10:43:20;73.18;;;49.08;;
11596;SDS011;5854;48.072;16.286;2022-10-16T10:46:08;63.93;;;46.60;;
11596;SDS011;5854;48.072;16.286;2022-10-16T10:48:45;55.65;;;40.25;;
11596;SDS011;5854;48.072;16.286;2022-10-16T10:53:59;60.42;;;41.72;;
11596;SDS011;5854;48.072;16.286;2022-10-16T10:56:40;62.15;;;42.75;;
11596;SDS011;5854;48.072;16.286;2022-10-16T10:59:32;59.72;;;42.63;;
11596;SDS011;5854;48.072;16.286;2022-10-16T11:02:20;60.78;;;43.92;;
11596;SDS011;5854;48.072;16.286;2022-10-16T11:05:03;65.95;;;44.88;;
11596;SDS011;5854;48.072;16.286;2022-10-16T11:07:57;64.25;;;44.33;;
11596;SDS011;5854;48.072;16.286;2022-10-16T11:10:28;67.90;;;44.50;;
11596;SDS011;5854;48.072;16.286;2022-10-16T11:13:03;73.68;;;46.80;;
11596;SDS011;5854;48.072;16.286;2022-10-16T11:15:41;66.22;;;44.45;;
11596;SDS011;5854;48.072;16.286;2022-10-16T11:18:16;60.92;;;41.63;;
11596;SDS011;5854;48.072;16.286;2022-10-16T11:20:49;59.10;;;44.15;;
11596;SDS011;5854;48.072;16.286;2022-10-16T11:28:37;58.20;;;41.95;;
11596;SDS011;5854;48.072;16.286;2022-10-16T11:31:14;61.40;;;44.03;;
11596;SDS011;5854;48.072;16.286;2022-10-16T11:33:49;55.10;;;40.20;;
11596;SDS011;5854;48.072;16.286;2022-10-16T11:36:22;56.22;;;42.75;;
11596;SDS011;5854;48.072;16.286;2022-10-16T11:38:58;57.30;;;40.90;;
11596;SDS011;5854;48.072;16.286;2022-10-16T11:41:32;68.18;;;43.63;;
11596;SDS011;5854;48.072;16.286;2022-10-16T11:44:06;52.13;;;39.28;;
11596;SDS011;5854;48.072;16.286;2022-10-16T11:46:48;60.15;;;46.55;;
11596;SDS011;5854;48.072;16.286;2022-10-16T11:49:22;54.35;;;39.20;;
11596;SDS011;5854;48.072;16.286;2022-10-16T11:51:55;55.22;;;41.70;;
11596;SDS011;5854;48.072;16.286;2022-10-16T11:54:32;58.55;;;43.80;;
11596;SDS011;5854;48.072;16.286;2022-10-16T11:57:09;58.22;;;44.10;;
11596;SDS011;5854;48.072;16.286;2022-10-16T11:59:44;56.45;;;43.95;;
11596;SDS011;5854;48.072;16.286;2022-10-16T12:02:26;57.13;;;43.45;;
11596;SDS011;5854;48.072;16.286;2022-10-16T12:05:16;63.40;;;46.55;;
11596;SDS011;5854;48.072;16.286;2022-10-16T12:07:54;63.20;;;47.80;;
11596;SDS011;5854;48.072;16.286;2022-10-16T12:13:02;61.60;;;46.75;;
11596;SDS011;5854;48.072;16.286;2022-10-16T12:15:31;60.97;;;48.40;;
11596;SDS011;5854;48.072;16.286;2022-10-16T12:18:01;65.80;;;50.03;;
11596;SDS011;5854;48.072;16.286;2022-10-16T12:20:29;63.40;;;46.63;;
11596;SDS011;5854;48.072;16.286;2022-10-16T12:23:01;63.45;;;49.42;;
11596;SDS011;5854;48.072;16.286;2022-10-16T12:25:31;66.43;;;49.50;;
11596;SDS011;5854;48.072;16.286;2022-10-16T12:28:00;68.38;;;49.92;;
11596;SDS011;5854;48.072;16.286;2022-10-16T12:30:31;61.47;;;47.40;;
11596;SDS011;5854;48.072;16.286;2022-10-16T12:33:03;60.78;;;47.40;;
11596;SDS011;5854;48.072;16.286;2022-10-16T12:35:32;67.47;;;50.42;;
11596;SDS011;5854;48.072;16.286;2022-10-16T12:38:05;65.00;;;51.50;;
11596;SDS011;5854;48.072;16.286;2022-10-16T12:40:39;62.92;;;49.38;;
11596;SDS011;5854;48.072;16.286;2022-10-16T12:43:13;65.88;;;48.65;;
11596;SDS011;5854;48.072;16.286;2022-10-16T12:46:04;62.40;;;48.72;;
11596;SDS011;5854;48.072;16.286;2022-10-16T12:48:49;66.90;;;48.65;;
11596;SDS011;5854;48.072;16.286;2022-10-16T12:51:24;63.13;;;50.33;;
11596;SDS011;5854;48.072;16.286;2022-10-16T12:54:01;64.10;;;48.30;;
11596;SDS011;5854;48.072;16.286;2022-10-16T12:56:33;70.70;;;51.13;;
11596;SDS011;5854;48.072;16.286;2022-10-16T12:59:13;63.65;;;45.83;;
11596;SDS011;5854;48.072;16.286;2022-10-16T13:01:55;63.10;;;47.53;;
11596;SDS011;5854;48.072;16.286;2022-10-16T13:04:52;66.80;;;48.85;;
11596;SDS011;5854;48.072;16.286;2022-10-16T13:07:44;62.30;;;50.25;;
11596;SDS011;5854;48.072;16.286;2022-10-16T13:10:24;66.75;;;48.88;;
11596;SDS011;5854;48.072;16.286;2022-10-16T13:13:09;58.97;;;46.53;;
11596;SDS011;5854;48.072;16.286;2022-10-16T13:15:52;66.63;;;51.40;;
11596;SDS011;5854;48.072;16.286;2022-10-16T13:18:36;58.95;;;47.72;;
11596;SDS011;5854;48.072;16.286;2022-10-16T13:21:20;64.47;;;47.63;;
11596;SDS011;5854;48.072;16.286;2022-10-16T13:24:01;62.13;;;47.20;;
11596;SDS011;5854;48.072;16.286;2022-10-16T13:26:39;64.45;;;47.63;;
11596;SDS011;5854;48.072;16.286;2022-10-16T13:29:12;63.03;;;46.83;;
11596;SDS011;5854;48.072;16.286;2022-10-16T13:31:39;61.05;;;48.47;;
11596;SDS011;5854;48.072;16.286;2022-10-16T13:34:11;64.00;;;48.88;;
11596;SDS011;5854;48.072;16.286;2022-10-16T13:36:45;57.35;;;45.97;;
11596;SDS011;5854;48.072;16.286;2022-10-16T13:39:19;65.68;;;48.78;;
11596;SDS011;5854;48.072;16.286;2022-10-16T13:42:02;63.67;;;48.38;;
11596;SDS011;5854;48.072;16.286;2022-10-16T13:44:34;60.78;;;45.50;;
11596;SDS011;5854;48.072;16.286;2022-10-16T13:47:10;59.83;;;46.53;;
11596;SDS011;5854;48.072;16.286;2022-10-16T13:49:43;65.38;;;48.20;;
11596;SDS011;5854;48.072;16.286;2022-10-16T13:52:19;65.88;;;48.05;;
11596;SDS011;5854;48.072;16.286;2022-10-16T13:54:47;63.28;;;46.75;;
11596;SDS011;5854;48.072;16.286;2022-10-16T13:57:14;59.40;;;47.08;;
11596;SDS011;5854;48.072;16.286;2022-10-16T13:59:42;56.95;;;46.15;;
11596;SDS011;5854;48.072;16.286;2022-10-16T14:02:15;68.60;;;45.05;;
11596;SDS011;5854;48.072;16.286;2022-10-16T14:04:49;63.13;;;45.13;;
11596;SDS011;5854;48.072;16.286;2022-10-16T14:07:20;56.85;;;46.20;;
11596;SDS011;5854;48.072;16.286;2022-10-16T14:09:51;60.70;;;46.33;;
11596;SDS011;5854;48.072;16.286;2022-10-16T14:12:20;59.83;;;44.53;;
11596;SDS011;5854;48.072;16.286;2022-10-16T14:14:49;55.50;;;44.72;;
11596;SDS011;5854;48.072;16.286;2022-10-16T14:17:19;56.45;;;41.40;;
11596;SDS011;5854;48.072;16.286;2022-10-16T14:19:50;53.63;;;44.92;;
11596;SDS011;5854;48.072;16.286;2022-10-16T14:22:31;40.38;;;33.22;;
11596;SDS011;5854;48.072;16.286;2022-10-16T14:25:01;42.83;;;36.15;;
11596;SDS011;5854;48.072;16.286;2022-10-16T14:27:55;49.30;;;39.60;;
11596;SDS011;5854;48.072;16.286;2022-10-16T14:30:25;63.20;;;48.50;;
11596;SDS011;5854;48.072;16.286;2022-10-16T14:32:55;63.90;;;46.00;;
11596;SDS011;5854;48.072;16.286;2022-10-16T14:35:27;59.25;;;44.67;;
11596;SDS011;5854;48.072;16.286;2022-10-16T14:37:58;75.65;;;46.97;;
11596;SDS011;5854;48.072;16.286;2022-10-16T14:40:28;65.67;;;45.93;;
11596;SDS011;5854;48.072;16.286;2022-10-16T14:42:57;56.33;;;42.20;;
11596;SDS011;5854;48.072;16.286;2022-10-16T14:45:26;68.07;;;49.67;;
11596;SDS011;5854;48.072;16.286;2022-10-16T14:47:57;67.70;;;47.80;;
11596;SDS011;5854;48.072;16.286;2022-10-16T14:50:26;54.45;;;40.03;;
11596;SDS011;5854;48.072;16.286;2022-10-16T14:52:54;58.70;;;42.58;;
11596;SDS011;5854;48.072;16.286;2022-10-16T14:55:23;58.97;;;42.17;;
11596;SDS011;5854;48.072;16.286;2022-10-16T14:57:54;67.47;;;48.83;;
11596;SDS011;5854;48.072;16.286;2022-10-16T15:00:22;74.80;;;51.50;;
11596;SDS011;5854;48.072;16.286;2022-10-16T15:02:50;73.78;;;49.65;;
11596;SDS011;5854;48.072;16.286;2022-10-16T15:05:21;71.32;;;48.17;;